createdAt,value
2023-01-10T18:01:36.231Z,2.60
2023-01-10T18:06:41.904Z,2.70
2023-01-10T18:11:47.250Z,2.43
2023-01-10T18:16:55.251Z,1.97
2023-01-10T18:22:00.571Z,2.53
2023-01-10T18:27:05.794Z,2.60
2023-01-10T18:32:13.570Z,1.70
2023-01-10T18:37:18.683Z,2.70
2023-01-10T18:42:23.798Z,2.00
2023-01-10T18:47:31.561Z,1.90
2023-01-10T18:52:36.906Z,1.93
2023-01-10T18:57:41.972Z,2.13
2023-01-10T19:02:50.139Z,2.37
2023-01-10T19:07:55.374Z,1.80
2023-01-10T19:13:02.267Z,1.93
2023-01-10T19:18:10.236Z,1.93
2023-01-10T19:23:15.577Z,1.70
2023-01-10T19:28:20.834Z,1.90
2023-01-10T19:33:29.009Z,1.73
2023-01-10T19:38:34.322Z,2.43
2023-01-10T19:43:39.424Z,1.50
2023-01-10T19:48:47.201Z,1.47
2023-01-10T19:53:52.315Z,1.50
2023-01-10T19:58:57.895Z,1.50
2023-01-10T20:04:06.678Z,1.37
2023-01-10T20:09:13.406Z,1.90
2023-01-10T20:14:19.719Z,1.33
2023-01-10T20:19:28.062Z,2.13
2023-01-10T20:24:33.252Z,1.70
2023-01-10T20:29:39.452Z,1.57
2023-01-10T20:34:50.064Z,1.87
2023-01-10T20:39:55.271Z,1.70
2023-01-10T20:45:00.702Z,1.53
2023-01-10T20:50:10.539Z,1.43
2023-01-10T20:55:19.778Z,1.40
2023-01-10T21:00:25.341Z,1.37
2023-01-10T21:05:33.309Z,1.60
2023-01-10T21:10:38.795Z,1.20
2023-01-10T21:15:44.205Z,1.50
2023-01-10T21:20:52.067Z,1.20
2023-01-10T21:26:00.081Z,1.40
2023-01-10T21:31:05.245Z,1.40
2023-01-10T21:36:13.603Z,1.50
2023-01-10T21:41:40.849Z,1.57
2023-01-10T21:46:48.822Z,1.30
2023-01-10T21:51:57.830Z,1.23
2023-01-10T21:57:03.790Z,1.30
2023-01-10T22:02:08.856Z,1.30
2023-01-10T22:07:16.628Z,1.03
2023-01-10T22:12:22.083Z,1.33
2023-01-10T22:17:27.470Z,1.20
